createdAt,value
2019-01-02T00:01:54.658Z,74.17
2019-01-02T00:04:25.221Z,72.60
2019-01-02T00:06:55.586Z,73.09
2019-01-02T00:09:25.967Z,73.56
2019-01-02T00:11:56.614Z,73.22
2019-01-02T00:14:27.031Z,73.25
2019-01-02T00:16:57.657Z,73.28
2019-01-02T00:19:28.028Z,73.92
2019-01-02T00:21:58.668Z,73.99
2019-01-02T00:24:29.070Z,74.26
2019-01-02T00:26:59.415Z,73.13
2019-01-02T00:29:30.129Z,73.06
2019-01-02T00:32:00.573Z,74.66
2019-01-02T00:34:31.499Z,73.38
2019-01-02T00:37:02.022Z,73.90
2019-01-02T00:39:33.116Z,73.66
2019-01-02T00:42:04.286Z,74.15
2019-01-02T00:44:34.843Z,74.13
2019-01-02T00:47:05.293Z,74.59
2019-01-02T00:49:38.857Z,73.41
2019-01-02T00:52:09.620Z,73.33
2019-01-02T00:54:43.091Z,73.87
2019-01-02T00:57:16.863Z,72.35
2019-01-02T00:59:48.613Z,72.01
2019-01-02T01:02:19.735Z,72.49
2019-01-02T01:04:50.141Z,72.15
2019-01-02T01:07:20.814Z,71.37
2019-01-02T01:09:51.239Z,72.42
2019-01-02T01:12:22.062Z,71.35
2019-01-02T01:14:52.486Z,70.94
2019-01-02T01:17:23.250Z,70.30
2019-01-02T01:19:53.639Z,70.15
2019-01-02T01:22:24.412Z,70.28
2019-01-02T01:24:57.603Z,70.48
2019-01-02T01:27:27.976Z,70.16
2019-01-02T01:29:58.641Z,71.04
2019-01-02T01:32:29.168Z,69.81
2019-01-02T01:34:59.950Z,69.63
2019-01-02T01:37:30.260Z,69.29
2019-01-02T01:40:00.599Z,68.79
2019-01-02T01:42:31.335Z,68.82
2019-01-02T01:45:01.741Z,68.93
2019-01-02T01:47:32.235Z,69.50
2019-01-02T01:50:06.008Z,68.91
2019-01-02T01:52:36.454Z,69.31
2019-01-02T01:55:07.029Z,69.83
2019-01-02T01:57:37.826Z,70.42
2019-01-02T02:00:15.400Z,71.25
2019-01-02T02:02:46.665Z,71.59
2019-01-02T02:05:17.348Z,72.42
2019-01-02T02:07:50.042Z,72.12
2019-01-02T02:10:22.560Z,71.89
2019-01-02T02:12:52.937Z,72.76
2019-01-02T02:15:23.406Z,72.30
2019-01-02T02:17:54.105Z,72.68
2019-01-02T02:20:24.516Z,72.44
2019-01-02T02:22:54.878Z,72.28
2019-01-02T02:25:27.571Z,72.54
2019-01-02T02:27:58.227Z,72.73
2019-01-02T02:30:28.716Z,72.62
2019-01-02T02:32:59.109Z,73.02
2019-01-02T02:35:29.512Z,73.53
2019-01-02T02:38:00.180Z,73.76
2019-01-02T02:40:42.608Z,73.90
2019-01-02T02:43:19.179Z,73.89
2019-01-02T02:45:50.355Z,73.87
2019-01-02T02:48:21.344Z,74.10
2019-01-02T02:50:52.158Z,74.19
2019-01-02T02:53:23.666Z,74.14
2019-01-02T02:55:57.439Z,74.47
2019-01-02T02:58:28.378Z,75.76
2019-01-02T03:00:59.549Z,76.31
2019-01-02T03:03:35.319Z,76.06
2019-01-02T03:06:05.745Z,76.57
2019-01-02T03:08:36.010Z,76.26
2019-01-02T03:11:06.414Z,76.71
2019-01-02T03:13:38.429Z,76.44
2019-01-02T03:16:09.063Z,76.69
2019-01-02T03:18:39.662Z,75.50
2019-01-02T03:21:10.042Z,76.21
2019-01-02T03:23:40.486Z,76.12
2019-01-02T03:26:10.872Z,76.11
2019-01-02T03:28:41.483Z,76.20
2019-01-02T03:31:12.301Z,76.22
2019-01-02T03:33:42.936Z,76.52
2019-01-02T03:36:13.313Z,76.29
2019-01-02T03:38:43.657Z,76.92
2019-01-02T03:41:14.183Z,76.43
2019-01-02T03:43:45.024Z,76.63
2019-01-02T03:46:15.525Z,77.22
2019-01-02T03:48:47.343Z,76.72
2019-01-02T03:51:17.886Z,76.87
2019-01-02T03:53:48.270Z,76.89
2019-01-02T03:56:18.943Z,76.97
2019-01-02T03:58:49.332Z,76.92
2019-01-02T04:01:19.965Z,77.13
2019-01-02T04:03:50.336Z,77.63
2019-01-02T04:06:20.657Z,77.02
2019-01-02T04:08:51.035Z,77.07
2019-01-02T04:11:21.401Z,77.48
2019-01-02T04:13:51.837Z,77.38
2019-01-02T04:16:22.188Z,77.72
2019-01-02T04:18:52.536Z,77.69
2019-01-02T04:21:22.893Z,77.66
2019-01-02T04:23:53.260Z,77.64
2019-01-02T04:26:23.996Z,77.76
2019-01-02T04:28:54.447Z,77.42
2019-01-02T04:31:25.491Z,77.27
2019-01-02T04:33:55.856Z,77.38
2019-01-02T04:36:26.342Z,77.63
2019-01-02T04:39:00.285Z,77.94
2019-01-02T04:41:30.691Z,77.94
2019-01-02T04:44:01.032Z,78.51
2019-01-02T04:46:31.682Z,78.23
2019-01-02T04:49:02.105Z,78.53
2019-01-02T04:51:32.718Z,78.94
2019-01-02T04:54:06.105Z,78.87
2019-01-02T04:56:47.008Z,79.20
2019-01-02T04:59:20.570Z,79.11
2019-01-02T05:01:50.913Z,78.73
2019-01-02T05:04:21.256Z,78.42
2019-01-02T05:06:51.573Z,79.11
2019-01-02T05:09:22.149Z,78.55
2019-01-02T05:11:52.692Z,78.24
2019-01-02T05:14:24.147Z,78.16
2019-01-02T05:16:54.853Z,78.61
2019-01-02T05:19:26.743Z,79.19
2019-01-02T05:21:57.197Z,78.67
2019-01-02T05:24:27.571Z,78.69
2019-01-02T05:27:00.386Z,78.93
2019-01-02T05:29:31.024Z,79.05
2019-01-02T05:32:01.452Z,79.02
2019-01-02T05:34:32.099Z,78.37
2019-01-02T05:37:02.555Z,78.34
2019-01-02T05:39:33.094Z,79.19
2019-01-02T05:42:03.444Z,78.79
2019-01-02T05:44:33.787Z,78.70
2019-01-02T05:47:04.569Z,79.02
2019-01-02T05:49:34.901Z,78.53
2019-01-02T05:52:05.559Z,79.00
2019-01-02T05:54:35.984Z,79.12
2019-01-02T05:57:09.074Z,79.50
2019-01-02T05:59:40.864Z,79.74
2019-01-02T06:02:11.587Z,79.89
2019-01-02T06:04:41.939Z,79.88
2019-01-02T06:07:12.251Z,80.14
2019-01-02T06:09:42.689Z,80.10
2019-01-02T06:12:13.015Z,80.44
2019-01-02T06:14:43.727Z,80.81
2019-01-02T06:17:14.072Z,80.97
2019-01-02T06:19:44.439Z,80.43
2019-01-02T06:22:14.852Z,80.87
2019-01-02T06:24:45.357Z,81.00
2019-01-02T06:27:16.080Z,81.55
2019-01-02T06:29:46.512Z,81.46
2019-01-02T06:32:16.959Z,81.67
2019-01-02T06:34:47.392Z,82.03
2019-01-02T06:37:17.930Z,82.05
2019-01-02T06:39:50.645Z,82.37
2019-01-02T06:42:21.004Z,82.69
2019-01-02T06:44:51.417Z,82.29
2019-01-02T06:47:21.941Z,82.16
2019-01-02T06:49:52.387Z,82.53
2019-01-02T06:52:25.122Z,82.44
2019-01-02T06:54:55.622Z,82.76
2019-01-02T06:57:26.039Z,82.90
2019-01-02T06:59:59.746Z,83.05
2019-01-02T07:02:30.180Z,82.61
2019-01-02T07:05:01.258Z,83.09
2019-01-02T07:07:31.595Z,82.57
2019-01-02T07:10:02.172Z,83.20
2019-01-02T07:12:32.748Z,83.25
2019-01-02T07:15:03.448Z,83.19
2019-01-02T07:17:36.635Z,83.70
2019-01-02T07:20:08.693Z,84.01
2019-01-02T07:22:39.371Z,83.68
2019-01-02T07:25:09.766Z,83.74
2019-01-02T07:27:40.238Z,84.07
2019-01-02T07:30:13.855Z,84.53
2019-01-02T07:32:44.248Z,84.58
2019-01-02T07:36:04.831Z,84.68
2019-01-02T07:38:50.373Z,84.66
2019-01-02T07:42:04.063Z,85.08
2019-01-02T07:45:14.261Z,85.09
2019-01-02T07:48:36.810Z,84.79
2019-01-02T07:51:50.052Z,84.37
2019-01-02T07:55:09.729Z,84.32
2019-01-02T07:58:18.365Z,84.19
2019-01-02T08:01:34.779Z,84.21
2019-01-02T08:04:58.302Z,84.55
2019-01-02T08:08:08.820Z,84.43
2019-01-02T08:11:25.131Z,84.62
2019-01-02T08:14:40.170Z,84.17
2019-01-02T08:17:33.100Z,84.63
2019-01-02T08:20:53.418Z,85.07
2019-01-02T08:24:16.542Z,84.54
2019-01-02T08:27:25.440Z,84.64
2019-01-02T08:30:27.980Z,84.78
2019-01-02T08:33:33.320Z,84.93
2019-01-02T08:36:41.543Z,85.66
2019-01-02T08:40:01.808Z,85.44
2019-01-02T08:43:07.004Z,84.58
2019-01-02T08:46:17.027Z,84.79
2019-01-02T08:49:25.299Z,84.95
2019-01-02T08:52:52.004Z,85.19
2019-01-02T08:55:45.679Z,85.49
2019-01-02T08:58:59.415Z,85.71
2019-01-02T09:02:15.345Z,85.93
2019-01-02T09:05:16.953Z,86.07
2019-01-02T09:08:28.672Z,86.05
2019-01-02T09:11:41.674Z,85.91
2019-01-02T09:15:06.378Z,85.91
2019-01-02T09:18:08.855Z,86.07
2019-01-02T09:21:19.061Z,86.03
2019-01-02T09:24:32.508Z,85.57
2019-01-02T09:27:22.106Z,85.28
2019-01-02T09:30:39.577Z,85.47
2019-01-02T09:33:35.528Z,84.95
2019-01-02T09:37:01.108Z,84.05
2019-01-02T09:40:19.474Z,83.99
2019-01-02T09:43:25.274Z,83.64
2019-01-02T09:46:20.590Z,83.45
2019-01-02T09:49:05.932Z,83.39
2019-01-02T09:52:29.391Z,83.42
2019-01-02T09:55:33.500Z,83.41
2019-01-02T09:58:39.497Z,83.04
2019-01-02T10:02:11.758Z,83.36
2019-01-02T10:05:19.169Z,83.38
2019-01-02T10:08:00.090Z,83.33
2019-01-02T10:11:05.860Z,84.08
2019-01-02T10:14:15.815Z,84.09
2019-01-02T10:17:11.982Z,84.14
2019-01-02T10:20:09.254Z,84.63
2019-01-02T10:23:28.397Z,84.50
2019-01-02T10:26:37.301Z,84.44
2019-01-02T10:29:53.377Z,84.85
2019-01-02T10:33:13.656Z,84.49
2019-01-02T10:35:54.424Z,84.26
2019-01-02T10:39:11.441Z,83.87
2019-01-02T10:42:37.709Z,83.74
2019-01-02T10:45:55.533Z,83.39
2019-01-02T10:49:02.530Z,83.75
2019-01-02T10:52:32.150Z,83.36
2019-01-02T10:55:42.311Z,83.92
2019-01-02T10:59:02.756Z,82.69
2019-01-02T11:02:23.835Z,81.21
2019-01-02T11:05:46.007Z,80.85
2019-01-02T11:08:40.752Z,78.80
2019-01-02T11:12:01.522Z,79.62
2019-01-02T11:15:21.992Z,79.80
2019-01-02T11:18:36.324Z,78.75
2019-01-02T11:21:51.478Z,78.52
2019-01-02T11:24:38.101Z,78.02
2019-01-02T11:28:01.600Z,77.54
2019-01-02T11:31:37.151Z,77.94
2019-01-02T11:34:36.376Z,77.66
2019-01-02T11:37:32.943Z,77.99
2019-01-02T11:40:52.165Z,78.13
2019-01-02T11:44:21.583Z,77.95
2019-01-02T11:46:52.432Z,78.18
2019-01-02T11:49:22.883Z,77.85
2019-01-02T11:51:53.616Z,77.31
2019-01-02T11:54:23.941Z,75.71
2019-01-02T11:56:54.251Z,75.42
2019-01-02T11:59:24.629Z,74.68
2019-01-02T12:01:55.019Z,74.59
2019-01-02T12:04:25.435Z,73.88
2019-01-02T12:06:55.788Z,71.56
2019-01-02T12:09:26.208Z,70.64
2019-01-02T12:11:56.817Z,71.13
2019-01-02T12:14:27.290Z,72.36
2019-01-02T12:16:57.787Z,72.24
2019-01-02T12:19:28.169Z,72.61
2019-01-02T12:22:00.457Z,72.08
2019-01-02T12:24:31.464Z,72.48
2019-01-02T12:27:01.877Z,70.94
2019-01-02T12:29:32.495Z,69.59
2019-01-02T12:32:02.918Z,68.52
2019-01-02T12:34:33.451Z,67.10
2019-01-02T12:37:04.958Z,66.10
2019-01-02T12:39:35.380Z,64.28
2019-01-02T12:42:08.517Z,63.91
2019-01-02T12:44:39.253Z,63.72
2019-01-02T12:47:12.707Z,64.51
2019-01-02T12:49:43.101Z,64.76
2019-01-02T12:52:13.819Z,64.81
2019-01-02T12:54:44.186Z,64.47
2019-01-02T12:57:16.039Z,63.33
2019-01-02T12:59:46.434Z,63.64
2019-01-02T13:02:54.703Z,64.62
2019-01-02T13:05:54.384Z,63.42
2019-01-02T13:08:59.404Z,62.61
2019-01-02T13:12:20.628Z,62.75
2019-01-02T13:15:29.194Z,63.22
2019-01-02T13:18:45.382Z,63.20
2019-01-02T13:21:42.365Z,64.42
2019-01-02T13:24:50.040Z,65.18
2019-01-02T13:27:44.247Z,65.86
2019-01-02T13:30:54.100Z,66.05
2019-01-02T13:34:01.941Z,65.89
2019-01-02T13:37:10.330Z,66.40
2019-01-02T13:40:39.259Z,66.94
2019-01-02T13:43:42.691Z,65.82
2019-01-02T13:46:38.520Z,65.71
2019-01-02T13:49:39.155Z,65.08
2019-01-02T13:52:10.141Z,64.78
2019-01-02T13:54:42.417Z,64.49
2019-01-02T13:57:12.867Z,64.27
2019-01-02T13:59:43.372Z,63.78
2019-01-02T14:02:13.746Z,63.30
2019-01-02T14:04:46.718Z,63.04
2019-01-02T14:07:17.146Z,63.09
2019-01-02T14:09:47.593Z,62.80
2019-01-02T14:12:18.137Z,62.58
2019-01-02T14:14:51.146Z,63.23
2019-01-02T14:17:21.823Z,63.57
2019-01-02T14:19:52.782Z,62.55
2019-01-02T14:22:23.189Z,61.18
2019-01-02T14:24:54.379Z,61.68
2019-01-02T14:27:25.652Z,62.05
2019-01-02T14:29:56.012Z,63.55
2019-01-02T14:32:26.482Z,64.77
2019-01-02T14:34:57.021Z,65.57
2019-01-02T14:37:27.711Z,65.64
2019-01-02T14:39:58.101Z,65.53
2019-01-02T14:42:28.561Z,66.03
2019-01-02T14:44:59.014Z,66.60
2019-01-02T14:47:29.443Z,67.55
2019-01-02T14:50:00.461Z,68.12
2019-01-02T14:52:30.888Z,69.14
2019-01-02T14:55:02.167Z,68.40
2019-01-02T14:57:32.590Z,68.46
2019-01-02T15:00:03.016Z,68.34
2019-01-02T15:02:33.439Z,69.07
2019-01-02T15:05:06.712Z,68.99
2019-01-02T15:07:37.341Z,68.82
2019-01-02T15:10:11.376Z,67.75
2019-01-02T15:12:41.904Z,67.53
2019-01-02T15:15:12.867Z,65.87
2019-01-02T15:17:43.249Z,65.11
2019-01-02T15:20:13.806Z,65.69
2019-01-02T15:22:44.224Z,64.79
2019-01-02T15:25:14.986Z,65.16
2019-01-02T15:27:45.369Z,64.46
2019-01-02T15:30:16.035Z,65.29
2019-01-02T15:32:49.016Z,65.48
2019-01-02T15:35:19.434Z,66.61
2019-01-02T15:37:52.607Z,66.54
2019-01-02T15:40:23.495Z,66.50
2019-01-02T15:42:54.014Z,66.15
2019-01-02T15:45:24.854Z,63.38
2019-01-02T15:48:00.878Z,63.24
2019-01-02T15:50:31.417Z,63.40
2019-01-02T15:53:01.942Z,62.48
2019-01-02T15:55:32.446Z,62.75
2019-01-02T15:58:03.106Z,63.15
2019-01-02T16:00:36.200Z,62.54
2019-01-02T16:03:10.569Z,62.83
2019-01-02T16:05:41.135Z,62.21
2019-01-02T16:08:11.745Z,62.20
2019-01-02T16:10:42.532Z,62.71
2019-01-02T16:13:12.968Z,63.02
2019-01-02T16:15:43.516Z,63.70
2019-01-02T16:18:14.141Z,64.62
2019-01-02T16:20:44.683Z,64.58
2019-01-02T16:23:15.393Z,64.66
2019-01-02T16:25:45.782Z,65.19
2019-01-02T16:28:16.414Z,65.68
2019-01-02T16:30:46.754Z,65.31
2019-01-02T16:33:21.231Z,66.22
2019-01-02T16:35:57.751Z,66.16
2019-01-02T16:38:28.401Z,66.78
2019-01-02T16:40:58.751Z,66.37
2019-01-02T16:43:33.709Z,66.33
2019-01-02T16:46:08.541Z,66.07
2019-01-02T16:48:41.434Z,66.61
2019-01-02T16:51:11.814Z,67.99
2019-01-02T16:53:42.214Z,67.35
2019-01-02T16:56:12.714Z,67.24
2019-01-02T16:58:43.138Z,67.76
2019-01-02T17:01:13.825Z,68.54
2019-01-02T17:03:46.241Z,68.33
2019-01-02T17:06:16.982Z,68.37
2019-01-02T17:08:47.747Z,68.62
2019-01-02T17:11:18.224Z,68.35
2019-01-02T17:13:48.641Z,68.76
2019-01-02T17:16:19.421Z,68.70
2019-01-02T17:18:50.025Z,69.22
2019-01-02T17:21:21.603Z,69.97
2019-01-02T17:23:52.074Z,70.56
2019-01-02T17:26:22.494Z,71.11
2019-01-02T17:28:52.887Z,70.99
2019-01-02T17:31:23.311Z,71.41
2019-01-02T17:33:53.860Z,71.62
2019-01-02T17:36:24.222Z,70.96
2019-01-02T17:38:54.588Z,71.13
2019-01-02T17:41:25.043Z,71.07
2019-01-02T17:43:55.470Z,70.96
2019-01-02T17:46:25.915Z,71.05
2019-01-02T17:48:56.511Z,71.30
2019-01-02T17:51:26.974Z,71.77
2019-01-02T17:53:57.517Z,72.11
2019-01-02T17:56:27.863Z,72.68
2019-01-02T17:58:58.455Z,72.98
2019-01-02T18:01:28.892Z,73.04
2019-01-02T18:04:01.676Z,73.16
2019-01-02T18:06:34.045Z,73.66
2019-01-02T18:09:06.394Z,73.12
2019-01-02T18:11:36.774Z,73.04
2019-01-02T18:14:07.438Z,73.20
2019-01-02T18:16:37.943Z,73.43
2019-01-02T18:19:09.519Z,73.50
2019-01-02T18:21:40.183Z,73.48
2019-01-02T18:24:10.716Z,73.65
2019-01-02T18:26:43.227Z,73.58
2019-01-02T18:29:13.862Z,73.67
2019-01-02T18:31:46.856Z,73.84
2019-01-02T18:34:17.295Z,73.72
2019-01-02T18:36:48.010Z,73.83
2019-01-02T18:39:18.505Z,73.81
2019-01-02T18:41:49.056Z,73.98
2019-01-02T18:44:20.541Z,73.72
2019-01-02T18:46:51.068Z,73.87
2019-01-02T18:49:21.753Z,74.22
2019-01-02T18:51:52.134Z,74.15
2019-01-02T18:54:22.556Z,75.11
2019-01-02T18:56:53.089Z,74.51
2019-01-02T18:59:23.531Z,74.44
2019-01-02T19:01:53.958Z,74.36
2019-01-02T19:04:24.414Z,74.09
2019-01-02T19:06:55.125Z,74.12
2019-01-02T19:09:31.471Z,74.66
2019-01-02T19:12:01.868Z,74.57
2019-01-02T19:14:35.771Z,74.05
2019-01-02T19:17:06.324Z,74.57
2019-01-02T19:19:36.929Z,74.14
2019-01-02T19:22:07.500Z,74.32
2019-01-02T19:24:38.388Z,74.86
2019-01-02T19:27:14.009Z,75.50
2019-01-02T19:29:46.051Z,76.01
2019-01-02T19:32:16.579Z,76.21
2019-01-02T19:34:49.790Z,75.50
2019-01-02T19:37:20.204Z,76.43
2019-01-02T19:39:50.757Z,76.16
2019-01-02T19:42:21.306Z,75.61
2019-01-02T19:44:55.227Z,75.31
2019-01-02T19:47:25.616Z,75.12
2019-01-02T19:49:55.981Z,75.03
2019-01-02T19:52:26.269Z,75.08
2019-01-02T19:54:59.418Z,75.12
2019-01-02T19:57:29.841Z,74.93
2019-01-02T20:00:00.238Z,75.15
2019-01-02T20:02:30.629Z,75.25
2019-01-02T20:05:01.089Z,75.36
2019-01-02T20:07:31.922Z,75.56
2019-01-02T20:10:02.319Z,75.61
2019-01-02T20:12:32.670Z,75.93
2019-01-02T20:15:03.103Z,75.78
2019-01-02T20:17:38.866Z,76.06
2019-01-02T20:20:06.277Z,76.06
2019-01-02T20:22:36.732Z,75.44
2019-01-02T20:25:07.274Z,75.19
2019-01-02T20:27:38.064Z,75.15
2019-01-02T20:30:10.718Z,75.07
2019-01-02T20:32:41.149Z,75.68
2019-01-02T20:35:11.529Z,74.68
2019-01-02T20:37:41.953Z,74.66
2019-01-02T20:40:12.355Z,73.89
2019-01-02T20:42:45.374Z,74.46
2019-01-02T20:45:15.723Z,74.61
2019-01-02T20:47:48.062Z,74.55
2019-01-02T20:50:18.713Z,75.09
2019-01-02T20:52:49.016Z,74.81
2019-01-02T20:55:19.726Z,75.07
2019-01-02T20:57:50.100Z,74.91
2019-01-02T21:00:20.507Z,75.07
2019-01-02T21:02:51.058Z,75.99
2019-01-02T21:05:21.625Z,76.19
2019-01-02T21:07:52.018Z,76.68
2019-01-02T21:10:23.041Z,76.79
2019-01-02T21:12:53.502Z,76.72
2019-01-02T21:15:23.933Z,76.55
2019-01-02T21:17:54.332Z,76.65
2019-01-02T21:20:24.725Z,77.16
2019-01-02T21:22:55.137Z,77.45
2019-01-02T21:25:25.568Z,77.07
2019-01-02T21:27:57.950Z,76.96
2019-01-02T21:30:28.805Z,77.41
2019-01-02T21:32:59.204Z,77.03
2019-01-02T21:35:29.659Z,76.79
2019-01-02T21:38:00.224Z,76.92
2019-01-02T21:40:30.611Z,77.42
2019-01-02T21:43:01.140Z,77.75
2019-01-02T21:45:31.730Z,78.08
2019-01-02T21:48:02.122Z,78.68
2019-01-02T21:50:32.664Z,79.29
2019-01-02T21:53:03.016Z,79.21
2019-01-02T21:55:33.507Z,79.73
2019-01-02T21:58:03.922Z,79.80
2019-01-02T22:00:34.593Z,80.40
2019-01-02T22:03:05.007Z,80.72
2019-01-02T22:05:35.514Z,81.10
2019-01-02T22:08:07.924Z,81.47
2019-01-02T22:10:38.354Z,81.81
2019-01-02T22:13:08.961Z,82.63
2019-01-02T22:15:39.544Z,82.85
2019-01-02T22:18:09.949Z,83.37
2019-01-02T22:20:43.947Z,83.85
2019-01-02T22:23:14.579Z,84.15
2019-01-02T22:25:45.241Z,84.69
2019-01-02T22:28:15.989Z,85.01
2019-01-02T22:30:50.103Z,85.23
2019-01-02T22:33:20.686Z,86.27
2019-01-02T22:35:53.717Z,86.07
2019-01-02T22:38:24.083Z,86.05
2019-01-02T22:40:54.515Z,86.52
2019-01-02T22:43:24.939Z,86.85
2019-01-02T22:45:55.339Z,86.43
2019-01-02T22:48:26.095Z,86.62
2019-01-02T22:50:56.455Z,87.15
2019-01-02T22:53:26.851Z,87.77
2019-01-02T22:55:57.348Z,87.71
2019-01-02T22:58:27.804Z,87.53
2019-01-02T23:01:04.697Z,87.53
2019-01-02T23:03:52.418Z,87.99
2019-01-02T23:06:54.250Z,88.48
2019-01-02T23:09:46.293Z,88.55
2019-01-02T23:12:34.317Z,88.42
2019-01-02T23:15:22.095Z,88.79
2019-01-02T23:18:14.304Z,88.85
2019-01-02T23:21:12.513Z,89.04
2019-01-02T23:24:00.790Z,89.30
2019-01-02T23:26:48.906Z,90.19
2019-01-02T23:29:56.721Z,89.91
2019-01-02T23:32:44.757Z,89.82
2019-01-02T23:35:37.054Z,89.63
2019-01-02T23:38:30.989Z,90.26
2019-01-02T23:41:16.922Z,90.75
2019-01-02T23:44:09.031Z,90.65
2019-01-02T23:46:57.769Z,90.70
2019-01-02T23:49:41.928Z,91.38
2019-01-02T23:52:45.714Z,91.19
2019-01-02T23:55:33.371Z,91.43
2019-01-02T23:58:21.150Z,91.60
